Terminal Aerodrome Forecast
Issued by NWS Omaha/Valley, NE

Home | Current Version | Previous Version | Text Only | Print | Product List | Glossary Off
Versions: 1 2 3 4 5 6 7 8 9 10 11 12 13 14 15

000
FTUS43 KOAX 300522
TAFOFK
TAF
KOFK 300522Z 3006/0106 05015KT P6SM -RA OVC012
     FM300900 05016G24KT 4SM -RA BR OVC008
     FM301200 05015G23KT 2SM RA BR OVC004
     FM301800 04014G22KT 4SM -RA BR OVC004
     FM010200 02013G20KT 4SM -RA OVC008=

USA.gov is the U.S. government's official web portal to all federal, state and local government web resources and services.